sensor_id;sensor_type;location;lat;lon;timestamp;P1;durP1;ratioP1;P2;durP2;ratioP2
6973;SDS011;3527;52.376;8.990;2023-06-22T00:01:20;16.73;;;12.57;;
6973;SDS011;3527;52.376;8.990;2023-06-22T00:03:50;14.97;;;12.20;;
6973;SDS011;3527;52.376;8.990;2023-06-22T00:06:17;12.57;;;11.20;;
6973;SDS011;3527;52.376;8.990;2023-06-22T00:08:44;12.33;;;10.73;;
6973;SDS011;3527;52.376;8.990;2023-06-22T00:11:11;12.10;;;10.80;;
6973;SDS011;3527;52.376;8.990;2023-06-22T00:13:38;12.60;;;9.90;;
6973;SDS011;3527;52.376;8.990;2023-06-22T00:16:05;12.13;;;10.33;;
6973;SDS011;3527;52.376;8.990;2023-06-22T00:18:32;12.23;;;10.67;;
6973;SDS011;3527;52.376;8.990;2023-06-22T00:20:59;11.57;;;10.37;;
6973;SDS011;3527;52.376;8.990;2023-06-22T00:23:26;13.20;;;11.53;;
6973;SDS011;3527;52.376;8.990;2023-06-22T00:25:53;13.00;;;10.30;;
6973;SDS011;3527;52.376;8.990;2023-06-22T00:28:20;10.90;;;9.10;;
6973;SDS011;3527;52.376;8.990;2023-06-22T00:30:48;9.77;;;8.77;;
6973;SDS011;3527;52.376;8.990;2023-06-22T00:33:16;11.00;;;9.43;;
6973;SDS011;3527;52.376;8.990;2023-06-22T00:35:43;11.87;;;9.27;;
6973;SDS011;3527;52.376;8.990;2023-06-22T00:38:10;11.07;;;9.10;;
6973;SDS011;3527;52.376;8.990;2023-06-22T00:40:37;13.83;;;8.87;;
6973;SDS011;3527;52.376;8.990;2023-06-22T00:43:05;11.33;;;8.73;;
6973;SDS011;3527;52.376;8.990;2023-06-22T00:45:32;10.77;;;8.60;;
6973;SDS011;3527;52.376;8.990;2023-06-22T00:47:59;10.97;;;9.13;;
6973;SDS011;3527;52.376;8.990;2023-06-22T00:50:27;11.37;;;9.43;;
6973;SDS011;3527;52.376;8.990;2023-06-22T00:53:00;11.40;;;9.60;;
6973;SDS011;3527;52.376;8.990;2023-06-22T00:55:35;11.13;;;9.23;;
6973;SDS011;3527;52.376;8.990;2023-06-22T00:58:08;13.57;;;10.97;;
6973;SDS011;3527;52.376;8.990;2023-06-22T01:00:37;14.10;;;11.43;;
6973;SDS011;3527;52.376;8.990;2023-06-22T01:03:07;12.67;;;9.63;;
6973;SDS011;3527;52.376;8.990;2023-06-22T01:05:37;11.03;;;9.83;;
6973;SDS011;3527;52.376;8.990;2023-06-22T01:16:27;11.23;;;10.00;;
6973;SDS011;3527;52.376;8.990;2023-06-22T01:18:57;10.97;;;9.60;;
6973;SDS011;3527;52.376;8.990;2023-06-22T01:21:41;14.27;;;10.27;;
6973;SDS011;3527;52.376;8.990;2023-06-22T01:24:22;13.67;;;10.60;;
6973;SDS011;3527;52.376;8.990;2023-06-22T01:26:58;13.30;;;10.40;;
6973;SDS011;3527;52.376;8.990;2023-06-22T01:29:32;13.13;;;10.87;;
6973;SDS011;3527;52.376;8.990;2023-06-22T01:32:01;11.27;;;10.00;;
6973;SDS011;3527;52.376;8.990;2023-06-22T01:34:33;10.13;;;9.07;;
6973;SDS011;3527;52.376;8.990;2023-06-22T01:37:01;12.27;;;10.17;;
6973;SDS011;3527;52.376;8.990;2023-06-22T01:39:28;11.00;;;9.80;;
6973;SDS011;3527;52.376;8.990;2023-06-22T01:41:56;12.60;;;10.80;;
6973;SDS011;3527;52.376;8.990;2023-06-22T01:44:24;11.00;;;9.87;;
6973;SDS011;3527;52.376;8.990;2023-06-22T01:46:52;12.47;;;9.97;;
6973;SDS011;3527;52.376;8.990;2023-06-22T01:49:20;13.23;;;10.50;;
6973;SDS011;3527;52.376;8.990;2023-06-22T01:51:47;13.70;;;10.90;;
6973;SDS011;3527;52.376;8.990;2023-06-22T01:54:14;15.03;;;11.33;;
6973;SDS011;3527;52.376;8.990;2023-06-22T01:56:40;14.47;;;11.23;;
6973;SDS011;3527;52.376;8.990;2023-06-22T02:02:00;12.37;;;10.33;;
6973;SDS011;3527;52.376;8.990;2023-06-22T02:04:48;14.00;;;11.00;;
6973;SDS011;3527;52.376;8.990;2023-06-22T02:07:28;12.57;;;9.77;;
6973;SDS011;3527;52.376;8.990;2023-06-22T02:09:59;13.93;;;10.87;;
6973;SDS011;3527;52.376;8.990;2023-06-22T02:12:28;9.73;;;8.70;;
6973;SDS011;3527;52.376;8.990;2023-06-22T02:14:57;15.53;;;11.93;;
6973;SDS011;3527;52.376;8.990;2023-06-22T02:17:24;12.07;;;10.27;;
6973;SDS011;3527;52.376;8.990;2023-06-22T02:19:52;12.37;;;10.17;;
6973;SDS011;3527;52.376;8.990;2023-06-22T02:22:19;11.73;;;9.13;;
6973;SDS011;3527;52.376;8.990;2023-06-22T02:24:46;12.20;;;10.03;;
6973;SDS011;3527;52.376;8.990;2023-06-22T02:27:13;12.83;;;10.80;;
6973;SDS011;3527;52.376;8.990;2023-06-22T02:29:40;13.90;;;10.23;;
6973;SDS011;3527;52.376;8.990;2023-06-22T02:32:07;11.13;;;9.70;;
6973;SDS011;3527;52.376;8.990;2023-06-22T02:34:33;10.97;;;9.13;;
6973;SDS011;3527;52.376;8.990;2023-06-22T02:37:03;12.20;;;10.00;;
6973;SDS011;3527;52.376;8.990;2023-06-22T02:39:30;10.67;;;9.67;;
6973;SDS011;3527;52.376;8.990;2023-06-22T02:41:57;11.07;;;9.40;;
6973;SDS011;3527;52.376;8.990;2023-06-22T02:44:23;10.67;;;9.30;;
6973;SDS011;3527;52.376;8.990;2023-06-22T02:46:50;11.27;;;9.10;;
6973;SDS011;3527;52.376;8.990;2023-06-22T02:49:17;10.50;;;8.97;;
6973;SDS011;3527;52.376;8.990;2023-06-22T02:51:45;9.87;;;8.53;;
6973;SDS011;3527;52.376;8.990;2023-06-22T02:54:13;11.43;;;9.83;;
6973;SDS011;3527;52.376;8.990;2023-06-22T02:56:40;10.13;;;8.63;;
6973;SDS011;3527;52.376;8.990;2023-06-22T02:59:10;10.73;;;9.30;;
6973;SDS011;3527;52.376;8.990;2023-06-22T03:01:37;10.60;;;9.60;;
6973;SDS011;3527;52.376;8.990;2023-06-22T03:04:07;12.50;;;10.17;;
6973;SDS011;3527;52.376;8.990;2023-06-22T03:06:34;10.30;;;9.03;;
6973;SDS011;3527;52.376;8.990;2023-06-22T03:09:02;12.63;;;9.47;;
6973;SDS011;3527;52.376;8.990;2023-06-22T03:11:32;10.20;;;9.10;;
6973;SDS011;3527;52.376;8.990;2023-06-22T03:14:00;14.27;;;9.90;;
6973;SDS011;3527;52.376;8.990;2023-06-22T03:16:27;10.10;;;8.67;;
6973;SDS011;3527;52.376;8.990;2023-06-22T03:18:55;10.87;;;8.60;;
6973;SDS011;3527;52.376;8.990;2023-06-22T03:21:27;13.13;;;9.57;;
6973;SDS011;3527;52.376;8.990;2023-06-22T03:23:55;10.60;;;9.10;;
6973;SDS011;3527;52.376;8.990;2023-06-22T03:26:22;13.87;;;9.97;;
6973;SDS011;3527;52.376;8.990;2023-06-22T03:28:50;10.37;;;8.87;;
6973;SDS011;3527;52.376;8.990;2023-06-22T03:31:16;10.70;;;9.23;;
6973;SDS011;3527;52.376;8.990;2023-06-22T03:33:48;10.10;;;9.00;;
6973;SDS011;3527;52.376;8.990;2023-06-22T03:36:16;11.90;;;9.67;;
6973;SDS011;3527;52.376;8.990;2023-06-22T03:38:47;11.43;;;9.70;;
6973;SDS011;3527;52.376;8.990;2023-06-22T03:41:14;10.90;;;8.77;;
6973;SDS011;3527;52.376;8.990;2023-06-22T03:43:41;10.17;;;9.00;;
6973;SDS011;3527;52.376;8.990;2023-06-22T03:46:08;10.40;;;9.03;;
6973;SDS011;3527;52.376;8.990;2023-06-22T03:48:35;10.00;;;8.90;;
6973;SDS011;3527;52.376;8.990;2023-06-22T03:51:02;13.00;;;9.37;;
6973;SDS011;3527;52.376;8.990;2023-06-22T03:53:32;12.13;;;9.80;;
6973;SDS011;3527;52.376;8.990;2023-06-22T03:55:59;11.03;;;9.93;;
6973;SDS011;3527;52.376;8.990;2023-06-22T03:58:26;12.97;;;9.33;;
6973;SDS011;3527;52.376;8.990;2023-06-22T04:00:53;11.57;;;9.90;;
6973;SDS011;3527;52.376;8.990;2023-06-22T04:03:20;10.27;;;9.23;;
6973;SDS011;3527;52.376;8.990;2023-06-22T04:05:47;11.83;;;9.43;;
6973;SDS011;3527;52.376;8.990;2023-06-22T04:08:15;11.53;;;9.40;;
6973;SDS011;3527;52.376;8.990;2023-06-22T04:10:42;11.60;;;8.93;;
6973;SDS011;3527;52.376;8.990;2023-06-22T04:13:09;10.27;;;9.07;;
6973;SDS011;3527;52.376;8.990;2023-06-22T04:15:36;12.07;;;8.40;;
6973;SDS011;3527;52.376;8.990;2023-06-22T04:18:11;9.10;;;8.20;;
6973;SDS011;3527;52.376;8.990;2023-06-22T04:20:40;14.73;;;9.30;;
6973;SDS011;3527;52.376;8.990;2023-06-22T04:23:08;11.80;;;8.53;;
6973;SDS011;3527;52.376;8.990;2023-06-22T04:25:35;10.13;;;8.60;;
6973;SDS011;3527;52.376;8.990;2023-06-22T04:28:03;10.67;;;8.50;;
6973;SDS011;3527;52.376;8.990;2023-06-22T04:30:32;12.70;;;9.17;;
6973;SDS011;3527;52.376;8.990;2023-06-22T04:32:59;13.07;;;9.23;;
6973;SDS011;3527;52.376;8.990;2023-06-22T04:35:26;12.07;;;10.00;;
6973;SDS011;3527;52.376;8.990;2023-06-22T04:37:57;10.67;;;9.33;;
6973;SDS011;3527;52.376;8.990;2023-06-22T04:40:25;10.37;;;9.27;;
6973;SDS011;3527;52.376;8.990;2023-06-22T04:42:53;10.13;;;8.73;;
6973;SDS011;3527;52.376;8.990;2023-06-22T04:45:20;11.27;;;9.10;;
6973;SDS011;3527;52.376;8.990;2023-06-22T04:47:47;10.67;;;8.57;;
6973;SDS011;3527;52.376;8.990;2023-06-22T04:50:15;10.03;;;8.40;;
6973;SDS011;3527;52.376;8.990;2023-06-22T04:52:43;11.03;;;8.30;;
6973;SDS011;3527;52.376;8.990;2023-06-22T04:55:10;11.60;;;8.77;;
6973;SDS011;3527;52.376;8.990;2023-06-22T04:57:41;12.17;;;8.90;;
6973;SDS011;3527;52.376;8.990;2023-06-22T05:00:11;9.90;;;8.90;;
6973;SDS011;3527;52.376;8.990;2023-06-22T05:02:39;11.67;;;9.47;;
6973;SDS011;3527;52.376;8.990;2023-06-22T05:05:06;10.37;;;8.80;;
6973;SDS011;3527;52.376;8.990;2023-06-22T05:07:34;10.40;;;9.40;;
6973;SDS011;3527;52.376;8.990;2023-06-22T05:10:02;11.60;;;8.80;;
6973;SDS011;3527;52.376;8.990;2023-06-22T05:12:30;11.40;;;8.60;;
6973;SDS011;3527;52.376;8.990;2023-06-22T05:14:57;9.70;;;8.73;;
6973;SDS011;3527;52.376;8.990;2023-06-22T05:17:24;9.60;;;8.30;;
6973;SDS011;3527;52.376;8.990;2023-06-22T05:19:51;10.20;;;9.10;;
6973;SDS011;3527;52.376;8.990;2023-06-22T05:22:18;11.47;;;8.63;;
6973;SDS011;3527;52.376;8.990;2023-06-22T05:24:45;10.60;;;8.00;;
6973;SDS011;3527;52.376;8.990;2023-06-22T05:27:13;11.17;;;9.60;;
6973;SDS011;3527;52.376;8.990;2023-06-22T05:29:40;10.17;;;9.17;;
6973;SDS011;3527;52.376;8.990;2023-06-22T05:32:09;12.70;;;8.93;;
6973;SDS011;3527;52.376;8.990;2023-06-22T05:34:36;12.33;;;10.43;;
6973;SDS011;3527;52.376;8.990;2023-06-22T05:37:03;11.90;;;9.97;;
6973;SDS011;3527;52.376;8.990;2023-06-22T05:39:30;12.70;;;11.27;;
6973;SDS011;3527;52.376;8.990;2023-06-22T05:41:57;14.00;;;10.03;;
6973;SDS011;3527;52.376;8.990;2023-06-22T05:44:24;11.30;;;8.87;;
6973;SDS011;3527;52.376;8.990;2023-06-22T05:46:51;11.30;;;10.20;;
6973;SDS011;3527;52.376;8.990;2023-06-22T05:49:18;12.03;;;10.63;;
6973;SDS011;3527;52.376;8.990;2023-06-22T05:51:45;12.67;;;11.20;;
6973;SDS011;3527;52.376;8.990;2023-06-22T05:54:11;13.90;;;11.13;;
6973;SDS011;3527;52.376;8.990;2023-06-22T05:56:40;14.10;;;12.67;;
6973;SDS011;3527;52.376;8.990;2023-06-22T05:59:07;14.30;;;12.37;;
6973;SDS011;3527;52.376;8.990;2023-06-22T06:01:33;13.87;;;12.47;;
6973;SDS011;3527;52.376;8.990;2023-06-22T06:04:05;14.43;;;12.50;;
6973;SDS011;3527;52.376;8.990;2023-06-22T06:06:34;13.47;;;11.77;;
6973;SDS011;3527;52.376;8.990;2023-06-22T06:09:04;13.80;;;12.33;;
6973;SDS011;3527;52.376;8.990;2023-06-22T06:11:31;17.57;;;13.70;;
6973;SDS011;3527;52.376;8.990;2023-06-22T06:13:58;12.23;;;10.90;;
6973;SDS011;3527;52.376;8.990;2023-06-22T06:16:24;13.70;;;11.87;;
6973;SDS011;3527;52.376;8.990;2023-06-22T06:18:51;14.27;;;12.83;;
6973;SDS011;3527;52.376;8.990;2023-06-22T06:21:20;15.13;;;12.93;;
6973;SDS011;3527;52.376;8.990;2023-06-22T06:23:47;16.77;;;13.30;;
6973;SDS011;3527;52.376;8.990;2023-06-22T06:26:14;14.77;;;13.17;;
6973;SDS011;3527;52.376;8.990;2023-06-22T06:28:43;14.93;;;12.83;;
6973;SDS011;3527;52.376;8.990;2023-06-22T06:31:13;15.50;;;13.63;;
6973;SDS011;3527;52.376;8.990;2023-06-22T06:33:43;16.67;;;14.83;;
6973;SDS011;3527;52.376;8.990;2023-06-22T06:36:11;14.40;;;12.90;;
6973;SDS011;3527;52.376;8.990;2023-06-22T06:38:38;15.37;;;13.73;;
6973;SDS011;3527;52.376;8.990;2023-06-22T06:41:05;14.48;;;12.93;;
6973;SDS011;3527;52.376;8.990;2023-06-22T06:43:32;14.25;;;12.50;;
6973;SDS011;3527;52.376;8.990;2023-06-22T06:45:58;14.82;;;13.32;;
6973;SDS011;3527;52.376;8.990;2023-06-22T06:48:25;16.23;;;14.53;;
6973;SDS011;3527;52.376;8.990;2023-06-22T06:50:52;14.88;;;13.27;;
6973;SDS011;3527;52.376;8.990;2023-06-22T06:53:19;17.60;;;14.90;;
6973;SDS011;3527;52.376;8.990;2023-06-22T06:55:45;14.60;;;13.10;;
6973;SDS011;3527;52.376;8.990;2023-06-22T06:58:12;17.05;;;15.27;;
6973;SDS011;3527;52.376;8.990;2023-06-22T07:00:39;15.05;;;13.27;;
6973;SDS011;3527;52.376;8.990;2023-06-22T07:03:06;17.65;;;14.13;;
6973;SDS011;3527;52.376;8.990;2023-06-22T07:05:33;14.25;;;12.63;;
6973;SDS011;3527;52.376;8.990;2023-06-22T07:08:01;16.95;;;14.32;;
6973;SDS011;3527;52.376;8.990;2023-06-22T07:10:28;14.98;;;13.48;;
6973;SDS011;3527;52.376;8.990;2023-06-22T07:12:56;16.23;;;14.30;;
6973;SDS011;3527;52.376;8.990;2023-06-22T07:15:23;14.73;;;13.18;;
6973;SDS011;3527;52.376;8.990;2023-06-22T07:17:50;16.15;;;13.88;;
6973;SDS011;3527;52.376;8.990;2023-06-22T07:20:18;14.43;;;12.90;;
6973;SDS011;3527;52.376;8.990;2023-06-22T07:22:45;16.77;;;15.00;;
6973;SDS011;3527;52.376;8.990;2023-06-22T07:25:12;18.08;;;14.73;;
6973;SDS011;3527;52.376;8.990;2023-06-22T07:28:02;15.57;;;13.77;;
6973;SDS011;3527;52.376;8.990;2023-06-22T07:30:31;15.90;;;14.30;;
6973;SDS011;3527;52.376;8.990;2023-06-22T07:33:00;15.27;;;13.57;;
6973;SDS011;3527;52.376;8.990;2023-06-22T07:35:31;15.70;;;13.70;;
6973;SDS011;3527;52.376;8.990;2023-06-22T07:37:59;15.98;;;14.27;;
6973;SDS011;3527;52.376;8.990;2023-06-22T07:40:31;15.18;;;13.43;;
6973;SDS011;3527;52.376;8.990;2023-06-22T07:42:58;16.23;;;14.55;;
6973;SDS011;3527;52.376;8.990;2023-06-22T07:45:25;16.92;;;14.23;;
6973;SDS011;3527;52.376;8.990;2023-06-22T07:47:52;19.02;;;14.45;;
6973;SDS011;3527;52.376;8.990;2023-06-22T07:50:19;17.20;;;14.80;;
6973;SDS011;3527;52.376;8.990;2023-06-22T07:52:46;16.98;;;15.18;;
6973;SDS011;3527;52.376;8.990;2023-06-22T07:55:14;17.25;;;14.48;;
6973;SDS011;3527;52.376;8.990;2023-06-22T07:57:41;16.10;;;14.50;;
6973;SDS011;3527;52.376;8.990;2023-06-22T08:00:08;16.52;;;14.82;;
6973;SDS011;3527;52.376;8.990;2023-06-22T08:02:44;15.77;;;14.07;;
6973;SDS011;3527;52.376;8.990;2023-06-22T08:05:14;14.40;;;12.93;;
6973;SDS011;3527;52.376;8.990;2023-06-22T08:07:44;17.33;;;15.45;;
6973;SDS011;3527;52.376;8.990;2023-06-22T08:10:13;16.33;;;14.43;;
6973;SDS011;3527;52.376;8.990;2023-06-22T08:12:40;16.88;;;12.98;;
6973;SDS011;3527;52.376;8.990;2023-06-22T08:15:08;13.38;;;12.07;;
6973;SDS011;3527;52.376;8.990;2023-06-22T08:17:36;18.92;;;15.35;;
6973;SDS011;3527;52.376;8.990;2023-06-22T08:20:05;14.93;;;12.05;;
6973;SDS011;3527;52.376;8.990;2023-06-22T08:22:37;17.02;;;15.23;;
6973;SDS011;3527;52.376;8.990;2023-06-22T08:25:05;15.30;;;13.45;;
6973;SDS011;3527;52.376;8.990;2023-06-22T08:27:32;14.60;;;12.57;;
6973;SDS011;3527;52.376;8.990;2023-06-22T08:30:02;15.55;;;13.95;;
6973;SDS011;3527;52.376;8.990;2023-06-22T08:32:29;14.88;;;12.40;;
6973;SDS011;3527;52.376;8.990;2023-06-22T08:34:56;14.93;;;12.48;;
6973;SDS011;3527;52.376;8.990;2023-06-22T08:37:26;15.02;;;13.43;;
6973;SDS011;3527;52.376;8.990;2023-06-22T08:40:03;18.23;;;13.70;;
6973;SDS011;3527;52.376;8.990;2023-06-22T08:42:40;16.35;;;14.65;;
6973;SDS011;3527;52.376;8.990;2023-06-22T08:45:08;16.15;;;13.05;;
6973;SDS011;3527;52.376;8.990;2023-06-22T08:47:35;15.68;;;13.25;;
6973;SDS011;3527;52.376;8.990;2023-06-22T08:50:02;16.23;;;14.55;;
6973;SDS011;3527;52.376;8.990;2023-06-22T08:52:30;16.30;;;14.10;;
6973;SDS011;3527;52.376;8.990;2023-06-22T08:54:57;14.25;;;12.18;;
6973;SDS011;3527;52.376;8.990;2023-06-22T08:57:27;15.80;;;12.65;;
6973;SDS011;3527;52.376;8.990;2023-06-22T08:59:54;14.93;;;11.68;;
6973;SDS011;3527;52.376;8.990;2023-06-22T09:02:25;13.25;;;11.88;;
6973;SDS011;3527;52.376;8.990;2023-06-22T09:04:57;13.90;;;12.25;;
6973;SDS011;3527;52.376;8.990;2023-06-22T09:07:25;12.73;;;11.27;;
6973;SDS011;3527;52.376;8.990;2023-06-22T09:09:53;15.02;;;13.45;;
6973;SDS011;3527;52.376;8.990;2023-06-22T09:12:20;15.80;;;13.27;;
6973;SDS011;3527;52.376;8.990;2023-06-22T09:14:51;15.10;;;12.65;;
6973;SDS011;3527;52.376;8.990;2023-06-22T09:17:19;12.82;;;11.52;;
6973;SDS011;3527;52.376;8.990;2023-06-22T09:19:47;13.48;;;12.07;;
6973;SDS011;3527;52.376;8.990;2023-06-22T09:22:15;15.27;;;12.68;;
6973;SDS011;3527;52.376;8.990;2023-06-22T09:24:42;15.02;;;11.77;;
6973;SDS011;3527;52.376;8.990;2023-06-22T09:27:08;11.25;;;10.05;;
6973;SDS011;3527;52.376;8.990;2023-06-22T09:29:35;12.10;;;10.63;;
6973;SDS011;3527;52.376;8.990;2023-06-22T09:32:02;12.10;;;10.57;;
6973;SDS011;3527;52.376;8.990;2023-06-22T09:34:29;11.20;;;9.93;;
6973;SDS011;3527;52.376;8.990;2023-06-22T09:37:00;11.80;;;9.95;;
6973;SDS011;3527;52.376;8.990;2023-06-22T09:39:28;11.18;;;10.00;;
6973;SDS011;3527;52.376;8.990;2023-06-22T09:41:54;11.27;;;10.18;;
6973;SDS011;3527;52.376;8.990;2023-06-22T09:44:21;11.20;;;9.95;;
6973;SDS011;3527;52.376;8.990;2023-06-22T09:46:48;9.85;;;8.85;;
6973;SDS011;3527;52.376;8.990;2023-06-22T09:49:15;15.45;;;10.25;;
6973;SDS011;3527;52.376;8.990;2023-06-22T09:51:42;12.23;;;10.23;;
6973;SDS011;3527;52.376;8.990;2023-06-22T09:54:09;12.93;;;9.77;;
6973;SDS011;3527;52.376;8.990;2023-06-22T09:56:35;11.68;;;10.05;;
6973;SDS011;3527;52.376;8.990;2023-06-22T09:59:04;9.80;;;8.80;;
6973;SDS011;3527;52.376;8.990;2023-06-22T10:01:44;10.23;;;9.23;;
6973;SDS011;3527;52.376;8.990;2023-06-22T10:04:11;13.23;;;10.60;;
6973;SDS011;3527;52.376;8.990;2023-06-22T10:06:38;11.90;;;9.82;;
6973;SDS011;3527;52.376;8.990;2023-06-22T10:09:07;11.25;;;10.15;;
6973;SDS011;3527;52.376;8.990;2023-06-22T10:11:35;10.88;;;9.60;;
6973;SDS011;3527;52.376;8.990;2023-06-22T10:14:02;13.27;;;9.45;;
6973;SDS011;3527;52.376;8.990;2023-06-22T10:16:30;10.27;;;9.27;;
6973;SDS011;3527;52.376;8.990;2023-06-22T10:18:58;10.27;;;9.18;;
6973;SDS011;3527;52.376;8.990;2023-06-22T10:21:29;11.93;;;8.80;;
6973;SDS011;3527;52.376;8.990;2023-06-22T10:23:56;11.55;;;10.18;;
6973;SDS011;3527;52.376;8.990;2023-06-22T10:26:23;10.02;;;8.70;;
6973;SDS011;3527;52.376;8.990;2023-06-22T10:28:50;9.48;;;8.48;;
6973;SDS011;3527;52.376;8.990;2023-06-22T10:31:25;11.05;;;10.05;;
6973;SDS011;3527;52.376;8.990;2023-06-22T10:33:54;11.57;;;10.13;;
6973;SDS011;3527;52.376;8.990;2023-06-22T10:36:21;10.45;;;9.45;;
6973;SDS011;3527;52.376;8.990;2023-06-22T10:38:49;9.25;;;8.30;;
6973;SDS011;3527;52.376;8.990;2023-06-22T10:41:16;9.68;;;8.65;;
6973;SDS011;3527;52.376;8.990;2023-06-22T10:43:43;11.88;;;8.70;;
6973;SDS011;3527;52.376;8.990;2023-06-22T10:46:10;9.90;;;9.00;;
6973;SDS011;3527;52.376;8.990;2023-06-22T10:48:37;10.13;;;9.13;;
6973;SDS011;3527;52.376;8.990;2023-06-22T10:51:04;11.00;;;9.20;;
6973;SDS011;3527;52.376;8.990;2023-06-22T10:53:31;10.60;;;9.50;;
6973;SDS011;3527;52.376;8.990;2023-06-22T10:55:58;10.50;;;8.85;;
6973;SDS011;3527;52.376;8.990;2023-06-22T10:58:26;9.70;;;8.73;;
6973;SDS011;3527;52.376;8.990;2023-06-22T11:00:53;9.73;;;8.75;;
6973;SDS011;3527;52.376;8.990;2023-06-22T11:03:19;13.57;;;10.00;;
6973;SDS011;3527;52.376;8.990;2023-06-22T11:05:47;11.88;;;9.13;;
6973;SDS011;3527;52.376;8.990;2023-06-22T11:08:14;10.55;;;9.45;;
6973;SDS011;3527;52.376;8.990;2023-06-22T11:10:41;10.07;;;8.98;;
6973;SDS011;3527;52.376;8.990;2023-06-22T11:13:09;9.77;;;8.68;;
6973;SDS011;3527;52.376;8.990;2023-06-22T11:15:38;9.40;;;8.50;;
6973;SDS011;3527;52.376;8.990;2023-06-22T11:18:05;10.32;;;9.23;;
6973;SDS011;3527;52.376;8.990;2023-06-22T11:20:33;10.18;;;9.25;;
6973;SDS011;3527;52.376;8.990;2023-06-22T11:23:05;11.13;;;9.13;;
6973;SDS011;3527;52.376;8.990;2023-06-22T11:25:33;8.75;;;7.95;;
6973;SDS011;3527;52.376;8.990;2023-06-22T11:28:02;9.40;;;8.45;;
6973;SDS011;3527;52.376;8.990;2023-06-22T11:30:29;9.07;;;8.18;;
6973;SDS011;3527;52.376;8.990;2023-06-22T11:32:58;9.80;;;8.80;;
6973;SDS011;3527;52.376;8.990;2023-06-22T11:35:25;11.77;;;9.05;;
6973;SDS011;3527;52.376;8.990;2023-06-22T11:37:52;10.68;;;8.32;;
6973;SDS011;3527;52.376;8.990;2023-06-22T11:40:19;10.25;;;9.20;;
6973;SDS011;3527;52.376;8.990;2023-06-22T11:42:46;11.60;;;8.55;;
6973;SDS011;3527;52.376;8.990;2023-06-22T11:45:13;10.63;;;9.00;;
6973;SDS011;3527;52.376;8.990;2023-06-22T11:47:41;11.38;;;8.68;;
6973;SDS011;3527;52.376;8.990;2023-06-22T11:50:08;10.82;;;8.23;;
6973;SDS011;3527;52.376;8.990;2023-06-22T11:52:35;9.35;;;8.45;;
6973;SDS011;3527;52.376;8.990;2023-06-22T11:55:02;11.25;;;8.60;;
6973;SDS011;3527;52.376;8.990;2023-06-22T11:57:38;11.70;;;8.13;;
6973;SDS011;3527;52.376;8.990;2023-06-22T12:00:17;11.77;;;8.70;;
6973;SDS011;3527;52.376;8.990;2023-06-22T12:02:45;8.20;;;7.40;;
6973;SDS011;3527;52.376;8.990;2023-06-22T12:05:12;9.05;;;8.15;;
6973;SDS011;3527;52.376;8.990;2023-06-22T12:07:39;9.25;;;8.35;;
6973;SDS011;3527;52.376;8.990;2023-06-22T12:10:06;8.65;;;7.75;;
6973;SDS011;3527;52.376;8.990;2023-06-22T12:12:33;9.02;;;8.00;;
6973;SDS011;3527;52.376;8.990;2023-06-22T12:15:00;9.40;;;8.48;;
6973;SDS011;3527;52.376;8.990;2023-06-22T12:17:30;9.02;;;8.20;;
6973;SDS011;3527;52.376;8.990;2023-06-22T12:19:56;10.20;;;8.48;;
6973;SDS011;3527;52.376;8.990;2023-06-22T12:22:24;8.80;;;7.85;;
6973;SDS011;3527;52.376;8.990;2023-06-22T12:24:51;9.25;;;8.35;;
6973;SDS011;3527;52.376;8.990;2023-06-22T12:27:18;9.32;;;8.43;;
6973;SDS011;3527;52.376;8.990;2023-06-22T12:29:45;7.90;;;7.13;;
6973;SDS011;3527;52.376;8.990;2023-06-22T12:32:13;8.50;;;7.70;;
6973;SDS011;3527;52.376;8.990;2023-06-22T12:34:43;9.73;;;8.73;;
6973;SDS011;3527;52.376;8.990;2023-06-22T12:37:11;9.65;;;8.50;;
6973;SDS011;3527;52.376;8.990;2023-06-22T12:39:40;10.63;;;9.63;;
6973;SDS011;3527;52.376;8.990;2023-06-22T12:42:07;10.43;;;8.80;;
6973;SDS011;3527;52.376;8.990;2023-06-22T12:44:35;10.88;;;8.70;;
6973;SDS011;3527;52.376;8.990;2023-06-22T12:47:02;9.57;;;8.65;;
6973;SDS011;3527;52.376;8.990;2023-06-22T12:49:29;9.85;;;8.85;;
6973;SDS011;3527;52.376;8.990;2023-06-22T12:51:56;10.30;;;9.30;;
6973;SDS011;3527;52.376;8.990;2023-06-22T12:54:23;9.10;;;8.25;;
6973;SDS011;3527;52.376;8.990;2023-06-22T12:56:50;9.73;;;8.82;;
6973;SDS011;3527;52.376;8.990;2023-06-22T12:59:19;8.45;;;7.63;;
6973;SDS011;3527;52.376;8.990;2023-06-22T13:01:49;12.77;;;9.25;;
6973;SDS011;3527;52.376;8.990;2023-06-22T13:04:16;10.02;;;7.68;;
6973;SDS011;3527;52.376;8.990;2023-06-22T13:06:45;8.43;;;7.63;;
6973;SDS011;3527;52.376;8.990;2023-06-22T13:09:15;10.52;;;9.07;;
6973;SDS011;3527;52.376;8.990;2023-06-22T13:11:46;11.48;;;9.50;;
6973;SDS011;3527;52.376;8.990;2023-06-22T13:14:13;9.30;;;8.30;;
6973;SDS011;3527;52.376;8.990;2023-06-22T13:16:42;9.52;;;8.52;;
6973;SDS011;3527;52.376;8.990;2023-06-22T13:19:09;10.15;;;8.35;;
6973;SDS011;3527;52.376;8.990;2023-06-22T13:21:36;10.88;;;9.68;;
6973;SDS011;3527;52.376;8.990;2023-06-22T13:24:03;12.02;;;10.30;;
6973;SDS011;3527;52.376;8.990;2023-06-22T13:26:32;10.85;;;9.15;;
6973;SDS011;3527;52.376;8.990;2023-06-22T13:28:59;10.68;;;9.68;;
6973;SDS011;3527;52.376;8.990;2023-06-22T13:31:26;11.07;;;10.00;;
6973;SDS011;3527;52.376;8.990;2023-06-22T13:33:53;10.82;;;9.75;;
6973;SDS011;3527;52.376;8.990;2023-06-22T13:36:21;11.63;;;9.05;;
6973;SDS011;3527;52.376;8.990;2023-06-22T13:38:49;11.60;;;10.00;;
6973;SDS011;3527;52.376;8.990;2023-06-22T13:41:16;11.68;;;10.43;;
6973;SDS011;3527;52.376;8.990;2023-06-22T13:43:43;12.43;;;10.93;;
6973;SDS011;3527;52.376;8.990;2023-06-22T13:46:10;12.07;;;10.88;;
6973;SDS011;3527;52.376;8.990;2023-06-22T13:48:37;12.13;;;10.93;;
6973;SDS011;3527;52.376;8.990;2023-06-22T13:51:04;15.75;;;14.15;;
6973;SDS011;3527;52.376;8.990;2023-06-22T13:53:33;15.48;;;13.27;;
6973;SDS011;3527;52.376;8.990;2023-06-22T13:56:00;17.50;;;14.38;;
6973;SDS011;3527;52.376;8.990;2023-06-22T13:58:27;17.45;;;14.75;;
6973;SDS011;3527;52.376;8.990;2023-06-22T14:00:54;18.33;;;15.48;;
6973;SDS011;3527;52.376;8.990;2023-06-22T14:03:22;20.75;;;17.20;;
6973;SDS011;3527;52.376;8.990;2023-06-22T14:05:49;18.95;;;16.95;;
6973;SDS011;3527;52.376;8.990;2023-06-22T14:08:16;18.80;;;16.73;;
6973;SDS011;3527;52.376;8.990;2023-06-22T14:10:45;21.23;;;18.58;;
6973;SDS011;3527;52.376;8.990;2023-06-22T14:13:12;22.23;;;19.15;;
6973;SDS011;3527;52.376;8.990;2023-06-22T14:15:39;26.52;;;21.10;;
6973;SDS011;3527;52.376;8.990;2023-06-22T14:18:06;25.55;;;21.42;;
6973;SDS011;3527;52.376;8.990;2023-06-22T14:20:32;25.42;;;21.85;;
6973;SDS011;3527;52.376;8.990;2023-06-22T14:22:59;27.17;;;22.27;;
6973;SDS011;3527;52.376;8.990;2023-06-22T14:25:26;27.65;;;23.55;;
6973;SDS011;3527;52.376;8.990;2023-06-22T14:27:53;30.38;;;23.42;;
6973;SDS011;3527;52.376;8.990;2023-06-22T14:30:19;29.10;;;25.27;;
6973;SDS011;3527;52.376;8.990;2023-06-22T14:32:46;26.92;;;22.98;;
6973;SDS011;3527;52.376;8.990;2023-06-22T14:35:16;32.05;;;24.52;;
6973;SDS011;3527;52.376;8.990;2023-06-22T14:37:42;24.67;;;20.20;;
6973;SDS011;3527;52.376;8.990;2023-06-22T14:40:10;31.45;;;24.73;;
6973;SDS011;3527;52.376;8.990;2023-06-22T14:42:37;31.85;;;25.17;;
6973;SDS011;3527;52.376;8.990;2023-06-22T14:45:04;31.65;;;24.67;;
6973;SDS011;3527;52.376;8.990;2023-06-22T14:47:32;36.28;;;26.08;;
6973;SDS011;3527;52.376;8.990;2023-06-22T14:49:59;38.72;;;27.23;;
6973;SDS011;3527;52.376;8.990;2023-06-22T14:52:26;35.65;;;27.00;;
6973;SDS011;3527;52.376;8.990;2023-06-22T14:54:53;41.13;;;28.13;;
6973;SDS011;3527;52.376;8.990;2023-06-22T14:57:21;45.40;;;28.92;;
6973;SDS011;3527;52.376;8.990;2023-06-22T14:59:49;42.57;;;27.90;;
6973;SDS011;3527;52.376;8.990;2023-06-22T15:02:16;39.65;;;29.15;;
6973;SDS011;3527;52.376;8.990;2023-06-22T15:04:43;35.03;;;27.43;;
6973;SDS011;3527;52.376;8.990;2023-06-22T15:07:10;28.47;;;23.57;;
6973;SDS011;3527;52.376;8.990;2023-06-22T15:09:37;23.23;;;19.97;;
6973;SDS011;3527;52.376;8.990;2023-06-22T15:12:07;22.00;;;17.87;;